Time;durP1;ratioP1;P1;durP2;ratioP2;P2;SDS_P1;SDS_P2;PMS_P1;PMS_P2;Temp;Humidity;BMP_temperature;BMP_pressure;BME280_temperature;BME280_humidity;BME280_pressure;Samples;Min_cycle;Max_cycle;Signal;HPM_P1;HPM_P2
2023/07/20 00:02:13;;;;;;;9.15;5.20;;;;;;;19.88;60.98;101287.41;5055977;28;20033;-70
2023/07/20 00:04:39;;;;;;;11.57;6.05;;;;;;;19.86;61.06;101291.38;5065392;28;20051;-71
2023/07/20 00:07:04;;;;;;;9.05;5.20;;;;;;;19.87;61.03;101280.94;5084784;28;20067;-70
2023/07/20 00:09:30;;;;;;;8.63;5.28;;;;;;;19.79;61.37;101285.28;5055683;28;20272;-70
2023/07/20 00:11:55;;;;;;;9.77;5.07;;;;;;;19.83;61.45;101280.72;5049989;28;20542;-70
2023/07/20 00:14:21;;;;;;;11.15;5.25;;;;;;;19.75;61.27;101283.38;5049978;28;20029;-70
2023/07/20 00:16:49;;;;;;;9.88;5.85;;;;;;;19.72;61.26;101287.63;5013835;28;1041844;-70
2023/07/20 00:19:16;;;;;;;8.93;5.18;;;;;;;19.78;61.16;101283.63;5054552;28;20055;-70
2023/07/20 00:21:42;;;;;;;15.00;5.93;;;;;;;19.71;61.46;101288.78;5089812;28;20062;-70
2023/07/20 00:24:08;;;;;;;10.63;5.60;;;;;;;19.69;61.53;101290.22;5077468;28;20025;-70
2023/07/20 00:26:33;;;;;;;9.13;5.45;;;;;;;19.75;61.22;101292.66;5050324;28;20032;-70
2023/07/20 00:28:59;;;;;;;10.13;5.95;;;;;;;19.77;61.26;101298.84;5067405;28;20028;-70
2023/07/20 00:31:24;;;;;;;11.00;5.53;;;;;;;19.68;62.01;101300.66;5070593;28;20021;-70
2023/07/20 00:33:49;;;;;;;11.57;5.80;;;;;;;19.66;61.68;101291.69;5068440;28;20041;-70
2023/07/20 00:36:15;;;;;;;10.65;5.60;;;;;;;19.67;61.92;101287.72;5053583;28;20047;-70
2023/07/20 00:38:41;;;;;;;10.48;5.50;;;;;;;19.66;61.82;101282.41;5050807;28;20033;-70
2023/07/20 00:41:07;;;;;;;10.38;6.20;;;;;;;19.64;61.71;101287.50;5050256;28;20029;-70
2023/07/20 00:43:32;;;;;;;9.25;5.95;;;;;;;19.67;61.73;101300.97;5051463;28;20124;-70
2023/07/20 00:45:58;;;;;;;10.38;5.70;;;;;;;19.56;61.98;101297.41;5053741;28;20029;-70
2023/07/20 00:48:23;;;;;;;11.48;6.10;;;;;;;19.58;61.88;101296.00;5052512;28;20024;-70
2023/07/20 00:50:49;;;;;;;8.55;5.93;;;;;;;19.56;61.89;101297.41;5078480;28;20044;-71
2023/07/20 00:53:15;;;;;;;14.73;6.10;;;;;;;19.55;62.13;101301.38;5066254;28;20472;-70
2023/07/20 00:55:40;;;;;;;11.27;5.80;;;;;;;19.51;62.05;101297.50;5065066;28;20042;-70
2023/07/20 00:58:06;;;;;;;10.80;6.32;;;;;;;19.44;62.22;101289.41;5072617;28;20036;-70
2023/07/20 01:00:32;;;;;;;12.23;6.00;;;;;;;19.44;62.11;101288.59;5063135;28;20032;-70
2023/07/20 01:02:57;;;;;;;13.73;6.03;;;;;;;19.43;62.16;101289.72;5051256;28;20021;-70
2023/07/20 01:05:31;;;;;;;12.70;6.32;;;;;;;19.41;62.15;101297.63;5050465;28;20025;-70
2023/07/20 01:08:07;;;;;;;11.10;6.55;;;;;;;19.34;62.55;101290.41;5049409;28;20049;-70
2023/07/20 01:11:16;;;;;;;9.00;6.05;;;;;;;19.42;61.94;101296.50;5059783;28;20103;-70
2023/07/20 01:13:43;;;;;;;13.27;6.38;;;;;;;19.32;62.55;101303.94;5059751;28;20168;-70
2023/07/20 01:16:09;;;;;;;13.07;6.65;;;;;;;19.30;62.67;101299.75;5052217;28;20041;-70
2023/07/20 01:18:34;;;;;;;13.38;6.45;;;;;;;19.35;62.48;101297.69;5054611;28;20037;-70
2023/07/20 01:21:06;;;;;;;10.25;6.38;;;;;;;19.29;62.53;101298.88;5068600;28;20115;-70
2023/07/20 01:23:55;;;;;;;12.82;7.15;;;;;;;19.32;62.15;101303.09;5072581;28;20029;-70
2023/07/20 01:26:53;;;;;;;10.30;6.05;;;;;;;19.35;62.34;101308.13;5071057;28;20056;-70
2023/07/20 01:29:32;;;;;;;11.18;6.30;;;;;;;19.29;62.50;101303.69;5072056;28;20137;-70
2023/07/20 01:31:57;;;;;;;11.90;6.40;;;;;;;19.28;63.10;101311.28;5056562;28;20480;-69
2023/07/20 01:34:24;;;;;;;14.60;6.40;;;;;;;19.25;63.26;101308.25;5056001;28;20112;-69
2023/07/20 01:36:52;;;;;;;19.23;6.95;;;;;;;19.26;63.16;101307.13;5053421;28;20045;-69
2023/07/20 01:39:19;;;;;;;12.88;7.10;;;;;;;19.27;63.34;101314.44;5057473;28;20033;-70
2023/07/20 01:41:45;;;;;;;12.35;6.57;;;;;;;19.21;63.55;101302.38;5094114;28;20031;-70
2023/07/20 01:44:12;;;;;;;13.10;6.80;;;;;;;19.21;63.63;101310.81;5060371;28;20037;-70
2023/07/20 01:46:37;;;;;;;14.25;6.82;;;;;;;19.23;63.73;101310.53;5072048;28;20039;-70
2023/07/20 01:49:02;;;;;;;14.93;6.97;;;;;;;19.24;63.66;101315.00;5066320;28;20029;-70
2023/07/20 01:51:28;;;;;;;10.95;6.97;;;;;;;19.19;63.82;101303.84;5057229;28;20033;-70
2023/07/20 01:53:53;;;;;;;12.05;6.50;;;;;;;19.15;63.97;101312.03;5054730;28;20032;-70
2023/07/20 01:56:19;;;;;;;12.23;7.20;;;;;;;19.19;64.00;101312.28;5073635;28;20468;-70
2023/07/20 01:58:44;;;;;;;16.85;7.63;;;;;;;19.19;64.16;101317.91;5069821;28;20067;-70
2023/07/20 02:01:09;;;;;;;13.50;7.40;;;;;;;19.18;64.35;101314.25;5073132;28;20067;-70
2023/07/20 02:03:35;;;;;;;12.57;7.55;;;;;;;19.22;64.36;101314.50;5075448;28;20028;-70
2023/07/20 02:06:00;;;;;;;13.75;8.45;;;;;;;19.16;64.48;101316.50;5061370;28;20573;-70
2023/07/20 02:08:26;;;;;;;10.88;7.50;;;;;;;19.19;64.79;101315.91;5084147;28;20032;-70
2023/07/20 02:10:52;;;;;;;15.73;8.20;;;;;;;19.23;64.69;101322.63;5073562;28;20426;-70
2023/07/20 02:13:17;;;;;;;12.32;8.88;;;;;;;19.24;64.82;101327.09;5072436;28;20369;-70
2023/07/20 02:15:42;;;;;;;17.15;9.35;;;;;;;19.19;64.95;101330.00;5065112;28;20685;-71
2023/07/20 02:18:08;;;;;;;11.27;8.82;;;;;;;19.15;65.21;101331.72;5065637;28;20486;-70
2023/07/20 02:20:34;;;;;;;13.13;8.13;;;;;;;19.13;65.27;101328.38;5078507;28;20110;-70
2023/07/20 02:23:00;;;;;;;14.10;9.02;;;;;;;19.16;65.40;101326.94;5075774;28;20031;-70
2023/07/20 02:25:25;;;;;;;13.60;9.48;;;;;;;19.08;65.79;101328.44;5084248;28;20025;-70
2023/07/20 02:27:50;;;;;;;14.77;9.75;;;;;;;19.12;65.74;101329.50;5065953;28;20047;-69
2023/07/20 02:30:17;;;;;;;16.70;10.40;;;;;;;19.16;65.73;101336.22;5085219;28;20029;-70
2023/07/20 02:32:45;;;;;;;17.25;11.32;;;;;;;19.12;65.92;101333.16;5065125;28;20031;-70
2023/07/20 02:35:11;;;;;;;14.93;10.70;;;;;;;19.12;65.89;101340.75;5068882;28;20033;-70
2023/07/20 02:37:36;;;;;;;12.75;10.40;;;;;;;19.10;66.33;101340.25;5056322;28;20051;-69
2023/07/20 02:40:04;;;;;;;16.40;10.32;;;;;;;19.19;66.06;101346.03;5052720;28;20036;-70
2023/07/20 02:42:29;;;;;;;15.32;10.48;;;;;;;19.13;66.15;101339.63;5055909;28;20107;-70
2023/07/20 02:44:54;;;;;;;13.93;10.15;;;;;;;19.15;66.15;101340.16;5062460;28;20029;-69
2023/07/20 02:47:20;;;;;;;15.70;10.80;;;;;;;19.10;66.21;101340.25;5064382;28;20055;-73
2023/07/20 02:49:45;;;;;;;14.82;10.20;;;;;;;19.11;66.16;101339.09;5054342;28;20684;-72
2023/07/20 02:52:11;;;;;;;15.63;11.10;;;;;;;19.03;66.51;101345.38;5060056;28;20023;-73
2023/07/20 02:54:36;;;;;;;13.95;11.30;;;;;;;19.04;66.58;101347.03;5055010;28;20161;-72
2023/07/20 02:57:02;;;;;;;17.23;12.02;;;;;;;19.03;66.60;101345.38;5057615;28;20389;-74
2023/07/20 02:59:27;;;;;;;18.15;12.00;;;;;;;19.05;66.45;101348.72;5053807;28;20047;-72
2023/07/20 03:01:53;;;;;;;15.48;11.35;;;;;;;19.04;66.58;101361.94;5052152;28;20489;-70
2023/07/20 03:04:19;;;;;;;16.58;10.90;;;;;;;19.05;66.48;101359.97;5067968;28;20025;-71
2023/07/20 03:06:44;;;;;;;14.57;11.95;;;;;;;18.99;66.69;101362.00;5071910;28;20047;-69
2023/07/20 03:09:10;;;;;;;21.98;13.32;;;;;;;18.94;66.88;101364.84;5058538;28;20032;-71
2023/07/20 03:11:35;;;;;;;15.90;12.43;;;;;;;18.92;66.90;101366.31;5055727;28;20055;-71
2023/07/20 03:14:00;;;;;;;17.45;11.93;;;;;;;18.89;66.94;101367.72;5060921;28;22203;-71
2023/07/20 03:16:26;;;;;;;16.13;12.80;;;;;;;18.88;66.97;101366.06;5058249;28;20134;-71
2023/07/20 03:18:51;;;;;;;15.45;11.63;;;;;;;18.85;67.08;101375.09;5071024;28;20491;-71
2023/07/20 03:21:17;;;;;;;16.10;12.10;;;;;;;18.78;66.94;101381.03;5055526;28;20032;-71
2023/07/20 03:23:42;;;;;;;13.40;11.75;;;;;;;18.84;66.61;101377.06;5052196;28;20175;-71
2023/07/20 03:26:08;;;;;;;15.00;12.15;;;;;;;18.78;66.95;101375.41;5068836;28;20032;-71
2023/07/20 03:28:34;;;;;;;12.85;11.55;;;;;;;18.89;66.52;101374.19;5069651;28;20089;-74
2023/07/20 03:31:00;;;;;;;16.70;12.18;;;;;;;18.87;66.54;101379.28;5059243;28;20029;-73
2023/07/20 03:33:27;;;;;;;14.10;12.15;;;;;;;18.88;66.58;101382.94;5051065;28;20028;-73
2023/07/20 03:35:53;;;;;;;14.02;11.43;;;;;;;18.76;66.40;101374.91;5050572;28;20037;-74
2023/07/20 03:38:19;;;;;;;15.00;11.63;;;;;;;18.79;66.26;101379.09;5052540;28;20028;-73
2023/07/20 03:40:55;;;;;;;11.98;10.60;;;;;;;18.77;66.23;101381.34;5058005;28;20036;-73
2023/07/20 03:43:22;;;;;;;14.13;11.48;;;;;;;18.73;66.24;101381.09;5065176;28;20071;-73
2023/07/20 03:45:50;;;;;;;12.52;10.90;;;;;;;18.70;66.59;101381.69;5071310;28;20450;-73
2023/07/20 03:48:16;;;;;;;13.98;12.52;;;;;;;18.67;66.82;101385.09;5069813;28;20029;-73
2023/07/20 03:50:42;;;;;;;15.18;12.18;;;;;;;18.67;66.76;101382.25;5068429;28;20418;-73
2023/07/20 03:53:07;;;;;;;16.75;12.68;;;;;;;18.64;66.87;101394.09;5078004;28;20107;-73
2023/07/20 03:55:32;;;;;;;14.15;12.50;;;;;;;18.62;67.17;101388.75;5075379;28;20040;-73
2023/07/20 03:57:58;;;;;;;14.80;13.30;;;;;;;18.62;66.94;101393.53;5048938;28;20068;-73
2023/07/20 04:00:23;;;;;;;14.52;12.93;;;;;;;18.63;66.82;101389.63;5065008;28;20050;-73
2023/07/20 04:02:49;;;;;;;18.02;13.85;;;;;;;18.62;66.95;101385.09;5051421;28;20044;-73
2023/07/20 04:05:14;;;;;;;14.73;13.00;;;;;;;18.53;66.86;101393.34;5050069;28;20052;-73
2023/07/20 04:07:39;;;;;;;13.75;12.43;;;;;;;18.59;66.91;101385.72;5064310;28;20093;-73
2023/07/20 04:10:05;;;;;;;16.67;13.70;;;;;;;18.58;66.82;101395.25;5076602;28;20547;-73
2023/07/20 04:12:30;;;;;;;15.63;12.60;;;;;;;18.52;67.01;101400.09;5068746;28;20032;-73
2023/07/20 04:14:56;;;;;;;13.82;11.98;;;;;;;18.44;67.18;101397.91;5063181;28;20028;-73
2023/07/20 04:17:21;;;;;;;16.65;13.13;;;;;;;18.46;66.95;101392.81;5058464;28;20053;-73
2023/07/20 04:19:46;;;;;;;13.73;11.63;;;;;;;18.48;66.97;101398.16;5050293;28;20485;-72
2023/07/20 04:22:15;;;;;;;12.70;11.35;;;;;;;18.38;66.93;101399.06;5055115;28;20059;-73
2023/07/20 04:24:40;;;;;;;12.13;10.60;;;;;;;18.47;66.48;101402.97;5050751;28;20477;-73
2023/07/20 04:27:06;;;;;;;12.05;10.77;;;;;;;18.38;66.61;101399.06;5049464;28;20032;-73
2023/07/20 04:29:31;;;;;;;11.65;10.45;;;;;;;18.43;66.42;101398.19;5050795;28;20033;-72
2023/07/20 04:31:56;;;;;;;11.60;10.35;;;;;;;18.40;66.24;101403.28;5060662;28;20050;-73
2023/07/20 04:34:22;;;;;;;12.80;10.10;;;;;;;18.39;66.47;101398.81;5062018;28;20024;-72
2023/07/20 04:36:47;;;;;;;11.52;8.77;;;;;;;18.42;65.68;101402.13;5065949;28;20021;-73
2023/07/20 04:39:12;;;;;;;10.52;9.50;;;;;;;18.35;66.06;101400.50;5050080;28;20119;-73
2023/07/20 04:41:38;;;;;;;11.02;9.45;;;;;;;18.36;66.09;101396.56;5051443;28;20108;-73
2023/07/20 04:44:03;;;;;;;10.90;9.65;;;;;;;18.33;65.92;101401.94;5050283;28;20044;-73
2023/07/20 04:46:28;;;;;;;10.52;9.50;;;;;;;18.35;65.96;101402.47;5073765;28;20040;-73
2023/07/20 04:48:54;;;;;;;10.05;9.05;;;;;;;18.32;66.05;101403.91;5090735;28;20460;-73
2023/07/20 04:51:20;;;;;;;10.77;9.68;;;;;;;18.36;65.95;101405.00;5061817;28;20035;-73
2023/07/20 04:53:47;;;;;;;12.25;9.60;;;;;;;18.27;66.25;101409.53;5053571;28;20045;-73
2023/07/20 04:56:12;;;;;;;11.82;10.35;;;;;;;18.25;66.37;101397.75;5071892;28;20392;-73
2023/07/20 04:58:37;;;;;;;12.93;10.88;;;;;;;18.30;66.42;101400.53;5089076;28;20034;-73
2023/07/20 05:01:03;;;;;;;14.00;12.48;;;;;;;18.29;66.60;101393.25;5077220;28;20033;-73
2023/07/20 05:03:28;;;;;;;15.00;12.68;;;;;;;18.27;66.67;101398.28;5054957;28;20044;-73
2023/07/20 05:05:54;;;;;;;14.38;12.98;;;;;;;18.29;66.85;101395.22;5071203;28;20096;-73
2023/07/20 05:08:19;;;;;;;15.75;13.88;;;;;;;18.26;66.89;101388.19;5070389;28;20372;-74
2023/07/20 05:10:45;;;;;;;15.55;13.98;;;;;;;18.31;66.46;101388.19;5072666;28;20525;-73
2023/07/20 05:13:10;;;;;;;16.10;14.40;;;;;;;18.29;66.71;101387.63;5087545;28;20107;-73
2023/07/20 05:15:35;;;;;;;18.20;16.40;;;;;;;18.30;66.85;101394.06;5055284;28;20394;-73
2023/07/20 05:18:01;;;;;;;16.42;14.73;;;;;;;18.27;66.91;101395.47;5079990;28;20045;-73
2023/07/20 05:20:26;;;;;;;16.30;14.50;;;;;;;18.30;66.92;101394.91;5083161;28;20055;-73
2023/07/20 05:22:52;;;;;;;16.73;15.10;;;;;;;18.31;66.79;101404.16;5070834;28;20028;-73
2023/07/20 05:25:18;;;;;;;16.35;14.63;;;;;;;18.26;67.02;101407.03;5067461;28;20025;-73
2023/07/20 05:27:46;;;;;;;16.30;14.60;;;;;;;18.22;67.12;101409.56;5082937;28;20032;-73
2023/07/20 05:30:11;;;;;;;14.75;13.05;;;;;;;18.24;66.98;101409.31;5088929;28;20096;-73
2023/07/20 05:32:37;;;;;;;14.73;12.85;;;;;;;18.32;66.72;101408.69;5065644;28;20031;-73
2023/07/20 05:35:02;;;;;;;14.60;13.13;;;;;;;18.34;66.68;101412.03;5067583;28;20037;-73
2023/07/20 05:37:28;;;;;;;14.30;12.70;;;;;;;18.36;66.40;101413.44;5053282;28;20087;-74
2023/07/20 05:39:53;;;;;;;14.13;12.63;;;;;;;18.45;66.34;101413.63;5051879;28;20021;-73
2023/07/20 05:42:19;;;;;;;16.35;14.15;;;;;;;18.41;66.43;101418.16;5076593;28;20035;-74
2023/07/20 05:44:44;;;;;;;15.15;13.63;;;;;;;18.51;66.02;101422.84;5088573;28;20681;-73
2023/07/20 05:47:09;;;;;;;14.43;12.63;;;;;;;18.51;66.11;101423.72;5089012;28;20024;-73
2023/07/20 05:49:35;;;;;;;14.95;13.35;;;;;;;18.53;66.18;101432.69;5084702;28;20249;-74
2023/07/20 05:52:01;;;;;;;16.02;13.63;;;;;;;18.55;66.03;101427.63;5071059;28;22016;-74
2023/07/20 05:54:27;;;;;;;13.73;12.32;;;;;;;18.62;65.99;101436.53;5072414;28;20158;-73
2023/07/20 05:56:52;;;;;;;13.35;11.27;;;;;;;18.73;65.35;101423.28;5072819;28;20029;-73
2023/07/20 05:59:19;;;;;;;10.30;9.25;;;;;;;18.78;65.04;101428.84;5072504;28;20051;-74
2023/07/20 06:01:44;;;;;;;10.63;9.15;;;;;;;18.83;64.85;101431.66;5073012;28;20039;-74
2023/07/20 06:04:10;;;;;;;9.80;8.40;;;;;;;18.86;64.52;101439.50;5068732;28;20036;-73
2023/07/20 06:06:35;;;;;;;10.30;8.93;;;;;;;18.88;64.23;101431.59;5062477;28;20052;-73
2023/07/20 06:09:04;;;;;;;9.63;8.73;;;;;;;18.86;64.48;101436.69;5071886;28;20127;-73
2023/07/20 06:11:30;;;;;;;9.45;8.52;;;;;;;18.87;64.27;101437.53;5072596;28;20032;-76
2023/07/20 06:13:56;;;;;;;7.72;7.03;;;;;;;18.92;64.12;101434.66;5070492;28;20032;-75
2023/07/20 06:16:22;;;;;;;9.93;7.13;;;;;;;19.01;63.73;101430.06;5062711;28;20090;-76
2023/07/20 06:18:47;;;;;;;7.55;6.82;;;;;;;19.12;64.26;101434.44;5051515;28;20031;-73
2023/07/20 06:21:12;;;;;;;5.95;5.18;;;;;;;19.30;64.86;101432.03;5052996;28;20115;-75
2023/07/20 06:23:38;;;;;;;9.32;7.38;;;;;;;19.42;64.95;101440.06;5066337;28;20020;-72
2023/07/20 06:26:03;;;;;;;9.60;8.38;;;;;;;19.49;63.06;101444.22;5049470;28;20490;-74
2023/07/20 06:28:28;;;;;;;11.48;10.23;;;;;;;19.41;62.79;101446.81;5064511;28;20067;-74
2023/07/20 06:30:59;;;;;;;6.78;6.10;;;;;;;19.49;63.78;101440.53;5083945;28;20036;-74
2023/07/20 06:33:25;;;;;;;12.18;9.25;;;;;;;19.31;62.88;101447.78;5071370;28;20111;-74
2023/07/20 06:35:52;;;;;;;11.05;9.90;;;;;;;19.33;63.69;101439.88;5055570;28;20163;-74
2023/07/20 06:38:17;;;;;;;10.77;8.68;;;;;;;19.44;63.65;101447.06;5063003;28;20027;-73
2023/07/20 06:40:43;;;;;;;11.43;8.80;;;;;;;19.48;63.01;101433.25;5062618;28;20036;-76
2023/07/20 06:43:08;;;;;;;9.60;8.60;;;;;;;19.40;62.62;101439.53;5062054;28;20025;-75
2023/07/20 06:45:34;;;;;;;8.52;5.60;;;;;;;19.51;61.84;101435.47;5065067;28;20392;-77
2023/07/20 06:47:59;;;;;;;5.82;4.53;;;;;;;19.59;61.31;101438.44;5049625;28;20059;-76
2023/07/20 06:50:24;;;;;;;5.85;5.22;;;;;;;19.64;60.99;101434.75;5061302;28;20773;-76
2023/07/20 06:52:50;;;;;;;7.05;5.28;;;;;;;19.71;61.03;101438.06;5068287;28;20033;-76
2023/07/20 06:55:15;;;;;;;7.85;6.20;;;;;;;19.61;61.03;101439.03;5072005;28;20088;-76
2023/07/20 06:57:40;;;;;;;7.05;5.85;;;;;;;19.64;60.68;101439.56;5076221;28;20028;-76
2023/07/20 07:00:06;;;;;;;4.38;3.67;;;;;;;19.80;60.94;101441.88;5062007;28;20039;-76
2023/07/20 07:02:32;;;;;;;4.93;4.43;;;;;;;19.81;61.40;101452.03;5067268;28;20032;-76
2023/07/20 07:04:57;;;;;;;6.18;5.57;;;;;;;19.75;61.09;101447.59;5060736;28;20032;-76
2023/07/20 07:07:23;;;;;;;5.32;3.60;;;;;;;19.82;60.93;101455.69;5052712;28;20036;-76
2023/07/20 07:09:48;;;;;;;4.80;4.40;;;;;;;19.80;60.61;101455.13;5069719;28;20093;-75
2023/07/20 07:12:14;;;;;;;5.63;4.25;;;;;;;19.73;60.29;101457.47;5067709;28;20083;-75
2023/07/20 07:14:39;;;;;;;5.40;4.10;;;;;;;19.73;59.86;101461.16;5084338;28;20165;-75
2023/07/20 07:17:05;;;;;;;3.28;2.70;;;;;;;19.91;60.29;101456.69;5058711;28;20077;-75
2023/07/20 07:19:30;;;;;;;2.90;2.13;;;;;;;20.02;60.06;101458.22;5069335;28;20023;-74
2023/07/20 07:21:55;;;;;;;3.75;3.08;;;;;;;20.02;59.43;101463.88;5066400;28;20435;-75
2023/07/20 07:24:20;;;;;;;4.55;2.45;;;;;;;20.05;59.42;101460.44;5059070;28;20037;-76
2023/07/20 07:26:46;;;;;;;5.80;3.83;;;;;;;19.97;58.99;101461.13;5058837;28;20428;-75
2023/07/20 07:29:11;;;;;;;2.85;2.55;;;;;;;20.05;58.76;101459.63;5060474;28;20111;-73
2023/07/20 07:31:38;;;;;;;1.85;1.73;;;;;;;19.96;57.83;101464.22;5068699;28;20052;-74
2023/07/20 07:34:04;;;;;;;2.55;2.08;;;;;;;19.99;57.86;101458.00;5068705;28;20081;-77
2023/07/20 07:36:30;;;;;;;2.25;2.03;;;;;;;20.14;58.67;101454.97;5072950;28;20058;-69
2023/07/20 07:38:56;;;;;;;1.73;1.63;;;;;;;20.23;58.66;101463.59;5064334;28;20031;-71
2023/07/20 07:41:22;;;;;;;2.10;1.88;;;;;;;20.23;58.08;101457.94;5050389;28;20028;-71
2023/07/20 07:43:47;;;;;;;2.20;1.27;;;;;;;20.23;57.73;101469.22;5050874;28;20035;-71
2023/07/20 07:46:14;;;;;;;2.17;1.50;;;;;;;20.25;57.80;101464.97;5051047;28;20021;-71
2023/07/20 07:48:39;;;;;;;2.35;1.42;;;;;;;20.27;57.57;101465.47;5050948;28;20067;-70
2023/07/20 07:51:04;;;;;;;2.08;1.10;;;;;;;20.35;56.89;101473.25;5049679;28;20024;-71
2023/07/20 07:53:30;;;;;;;3.38;1.20;;;;;;;20.49;56.41;101479.03;5057638;28;20028;-70
2023/07/20 07:55:55;;;;;;;1.52;1.38;;;;;;;20.61;56.52;101472.09;5089785;28;20105;-71
2023/07/20 07:58:21;;;;;;;1.45;1.25;;;;;;;20.69;55.80;101469.41;5091463;28;20046;-71
2023/07/20 08:00:47;;;;;;;3.88;1.70;;;;;;;20.79;55.39;101476.88;5069943;28;20024;-71
2023/07/20 08:03:13;;;;;;;3.33;2.20;;;;;;;20.78;54.93;101481.66;5069407;28;20054;-71
2023/07/20 08:05:38;;;;;;;2.17;1.30;;;;;;;21.02;55.27;101475.91;5070857;28;20539;-71
2023/07/20 08:08:04;;;;;;;2.05;1.15;;;;;;;21.16;54.76;101478.78;5069390;28;20091;-71
2023/07/20 08:10:30;;;;;;;2.58;1.30;;;;;;;21.29;54.38;101477.13;5078366;28;20164;-71
2023/07/20 08:12:55;;;;;;;1.30;1.20;;;;;;;21.32;54.11;101474.56;5071454;28;20028;-71
2023/07/20 08:15:20;;;;;;;2.92;1.08;;;;;;;21.40;53.44;101480.66;5070103;28;20430;-70
2023/07/20 08:17:46;;;;;;;2.28;1.70;;;;;;;21.30;53.73;101476.84;5069748;28;20035;-71
2023/07/20 08:20:13;;;;;;;2.30;1.30;;;;;;;21.24;54.08;101477.22;5058338;28;20017;-70
2023/07/20 08:22:39;;;;;;;1.92;1.50;;;;;;;21.11;54.20;101476.06;5071912;28;20027;-72
2023/07/20 08:25:05;;;;;;;2.67;1.48;;;;;;;21.12;53.96;101480.53;5090897;28;20028;-71
2023/07/20 08:27:31;;;;;;;1.42;1.15;;;;;;;21.08;53.99;101477.50;5094554;28;20449;-71
2023/07/20 08:29:56;;;;;;;2.28;1.75;;;;;;;20.84;52.18;101479.63;5094665;28;20016;-71
2023/07/20 08:32:22;;;;;;;1.63;1.40;;;;;;;20.78;52.96;101476.03;5093803;28;20020;-71
2023/07/20 08:34:47;;;;;;;1.23;0.85;;;;;;;20.83;54.06;101475.13;5087935;28;20046;-71
2023/07/20 08:37:12;;;;;;;1.00;0.90;;;;;;;20.87;53.95;101478.13;5067652;28;20032;-71
2023/07/20 08:39:37;;;;;;;0.90;0.85;;;;;;;20.98;53.21;101474.00;5071814;28;20028;-71
2023/07/20 08:42:06;;;;;;;1.13;1.02;;;;;;;21.12;53.10;101477.72;5088431;28;20061;-70
2023/07/20 08:44:33;;;;;;;2.25;0.90;;;;;;;21.28;52.95;101473.47;5094172;28;20087;-71
2023/07/20 08:47:03;;;;;;;1.13;0.82;;;;;;;21.38;51.90;101471.63;5092888;28;20123;-70
2023/07/20 08:49:31;;;;;;;0.80;0.80;;;;;;;21.46;50.99;101462.47;5094200;28;20337;-70
2023/07/20 08:51:57;;;;;;;1.35;0.60;;;;;;;21.48;49.79;101466.63;5093429;28;20165;-71
2023/07/20 08:54:24;;;;;;;1.58;0.70;;;;;;;21.63;50.67;101471.16;5069874;28;20044;-71
2023/07/20 08:56:49;;;;;;;1.00;0.60;;;;;;;21.69;49.80;101455.78;5090952;28;20399;-70
2023/07/20 08:59:16;;;;;;;0.68;0.60;;;;;;;21.73;47.98;101467.28;5093294;28;20020;-71
2023/07/20 09:01:44;;;;;;;0.98;0.80;;;;;;;21.83;48.76;101460.59;5093643;28;20031;-71
2023/07/20 09:04:10;;;;;;;1.15;0.80;;;;;;;21.86;47.91;101465.63;5093625;28;20131;-70
2023/07/20 09:06:36;;;;;;;1.27;0.80;;;;;;;21.86;48.56;101455.16;5093215;28;20028;-71
2023/07/20 09:09:02;;;;;;;0.88;0.80;;;;;;;21.82;48.52;101459.75;5088057;28;20449;-71
2023/07/20 09:11:27;;;;;;;2.03;1.08;;;;;;;21.71;48.83;101458.28;5068833;28;20200;-72
2023/07/20 09:14:23;;;;;;;0.77;0.60;;;;;;;21.71;50.08;101458.28;5072489;28;20095;-71
2023/07/20 09:16:55;;;;;;;1.38;0.90;;;;;;;21.56;49.05;101462.25;5068243;28;20088;-71
2023/07/20 09:19:21;;;;;;;1.15;0.88;;;;;;;21.48;48.47;101468.63;5073306;28;20043;-72
2023/07/20 09:21:48;;;;;;;2.85;1.40;;;;;;;21.35;49.18;101461.81;5072641;28;20016;-72
2023/07/20 09:24:14;;;;;;;1.65;0.85;;;;;;;21.38;50.02;101446.22;5084829;28;20028;-72
2023/07/20 09:26:44;;;;;;;2.85;1.10;;;;;;;21.30;49.41;101447.75;5078837;28;20023;-72
2023/07/20 09:29:10;;;;;;;2.00;0.80;;;;;;;21.27;49.04;101460.50;5071900;28;20020;-71
2023/07/20 09:31:36;;;;;;;1.52;1.00;;;;;;;21.25;49.60;101457.16;5073429;28;20445;-71
2023/07/20 09:34:01;;;;;;;1.30;1.05;;;;;;;21.18;49.77;101453.91;5071714;28;20111;-72
2023/07/20 09:36:27;;;;;;;1.85;1.00;;;;;;;21.15;50.12;101454.53;5091276;28;20020;-72
2023/07/20 09:38:53;;;;;;;4.68;1.15;;;;;;;21.11;50.08;101450.66;5092985;28;20360;-71
2023/07/20 09:41:20;;;;;;;3.33;1.05;;;;;;;21.03;50.16;101452.19;5092192;28;20023;-71
2023/07/20 09:43:46;;;;;;;1.60;1.13;;;;;;;20.98;50.77;101449.44;5079368;28;20032;-71
2023/07/20 09:46:11;;;;;;;1.42;1.00;;;;;;;20.93;51.26;101449.53;5071965;28;20032;-71
2023/07/20 09:48:37;;;;;;;1.27;1.13;;;;;;;20.94;51.48;101456.00;5071991;28;20021;-71
2023/07/20 09:51:05;;;;;;;2.15;1.13;;;;;;;20.93;51.29;101454.34;5090671;28;20559;-71
2023/07/20 09:53:33;;;;;;;1.50;0.90;;;;;;;20.90;52.07;101455.78;5093126;28;20024;-71
2023/07/20 09:55:59;;;;;;;2.50;1.50;;;;;;;20.87;52.11;101450.78;5091921;28;20054;-71
2023/07/20 09:58:26;;;;;;;1.73;1.10;;;;;;;20.92;51.80;101447.03;5092866;28;20031;-71
2023/07/20 10:00:57;;;;;;;3.95;1.20;;;;;;;21.00;52.28;101444.34;5070807;28;20035;-71
2023/07/20 10:03:29;;;;;;;3.05;1.00;;;;;;;21.09;52.42;101441.63;5087364;28;20024;-71
2023/07/20 10:05:59;;;;;;;2.17;0.90;;;;;;;21.29;51.61;101451.72;5092287;28;20026;-72
2023/07/20 10:08:26;;;;;;;1.00;0.90;;;;;;;21.40;50.29;101441.09;5089729;28;20468;-72
2023/07/20 10:10:51;;;;;;;2.67;0.90;;;;;;;21.52;49.51;101452.72;5091384;28;20592;-72
2023/07/20 10:13:18;;;;;;;1.25;0.70;;;;;;;21.61;49.17;101436.72;5092766;28;20106;-71
2023/07/20 10:15:48;;;;;;;0.90;0.75;;;;;;;21.64;49.00;101441.75;5092506;28;20052;-71
2023/07/20 10:18:16;;;;;;;1.67;0.70;;;;;;;21.69;49.12;101432.31;5072077;28;20039;-71
2023/07/20 10:20:44;;;;;;;1.67;1.00;;;;;;;21.72;47.78;101438.19;5071474;28;20116;-71
2023/07/20 10:23:10;;;;;;;1.90;1.00;;;;;;;21.79;47.61;101438.59;5073147;28;20020;-71
2023/07/20 10:25:38;;;;;;;2.17;0.80;;;;;;;21.92;47.96;101433.25;5071458;28;20035;-70
2023/07/20 10:28:06;;;;;;;1.77;0.82;;;;;;;21.97;47.58;101438.81;5070559;28;20028;-70
2023/07/20 10:30:34;;;;;;;1.52;0.95;;;;;;;21.99;47.70;101430.84;5086187;28;20097;-70
2023/07/20 10:33:02;;;;;;;0.82;0.77;;;;;;;22.03;46.61;101429.06;5092302;28;20024;-71
2023/07/20 10:35:27;;;;;;;1.10;1.00;;;;;;;22.07;46.30;101427.25;5089810;28;20452;-71
2023/07/20 10:38:02;;;;;;;2.65;0.75;;;;;;;22.23;47.49;101424.97;5090712;28;20115;-71
2023/07/20 10:40:38;;;;;;;1.95;0.80;;;;;;;22.22;46.93;101418.47;5063126;28;20033;-71
2023/07/20 10:43:04;;;;;;;1.15;0.73;;;;;;;22.12;46.04;101417.81;5052848;28;20071;-71
2023/07/20 10:45:42;;;;;;;2.63;0.70;;;;;;;22.04;46.43;101422.25;5052793;28;20029;-70
2023/07/20 10:48:27;;;;;;;1.05;0.73;;;;;;;22.06;47.39;101405.81;5052159;28;20029;-71
2023/07/20 10:51:16;;;;;;;2.55;0.85;;;;;;;22.06;47.32;101415.13;5053803;28;20068;-70
2023/07/20 10:53:41;;;;;;;2.88;1.30;;;;;;;22.17;44.58;101409.28;5070829;28;20024;-70
2023/07/20 10:56:15;;;;;;;1.13;0.75;;;;;;;22.23;46.20;101413.66;5071457;28;20036;-71
2023/07/20 10:58:41;;;;;;;0.73;0.70;;;;;;;22.17;44.62;101407.28;5070394;28;20031;-71
2023/07/20 11:01:08;;;;;;;0.82;0.80;;;;;;;22.15;45.10;101411.56;5071570;28;20029;-71
2023/07/20 11:03:39;;;;;;;0.63;0.63;;;;;;;22.17;45.89;101414.94;5071493;28;20125;-71
2023/07/20 11:06:23;;;;;;;3.10;0.90;;;;;;;22.17;46.03;101412.94;5079265;28;20035;-71
2023/07/20 11:08:55;;;;;;;1.45;0.73;;;;;;;22.14;45.50;101407.09;5078993;28;20070;-71
2023/07/20 11:11:28;;;;;;;2.22;0.80;;;;;;;22.05;45.07;101413.47;5070824;28;20508;-71
2023/07/20 11:13:57;;;;;;;1.45;1.00;;;;;;;22.05;45.33;101410.63;5070602;28;20409;-71
2023/07/20 11:16:43;;;;;;;1.63;0.68;;;;;;;22.12;46.47;101400.88;5071211;28;20178;-71
2023/07/20 11:19:25;;;;;;;1.98;0.95;;;;;;;22.22;46.18;101401.50;5071012;28;20078;-71